★DATES★

February 27
~
March 13

★PRIZES★
$30
MILLION
GUARANTEED

Choose to walk in, you will be both hunter and prey.
It’s just business, nothing personal.

Highlights

Huge Sunday Lineup – $5M+ in guarantees every Sunday
Global MILLION$ Bounty Edition – Win a share of $1M for just fifty bucks!
Special Edition GGMasters $25 Bounty Freezeouts – 3 chances to win big each day
Bounty Hunters Daily Main – Format changes every day! Try the HR version if you dare…
Daily Big Game $210 – 100K Starting Chips. Prove yourself in the Big Game.

Full Schedule

DATE DAY GMT EVENT BUY-IN GTD
2/27 Sun 12:30 Sunday Blast-Off $210 $210 $50,000
2/27 Sun 12:30 Mini Blast-Off $21 $21 $50,000
2/27 Sun 13:15 Ultra Deepstack Bounty Turbo $52.50 $52.50 $25,000
2/27 Sun 13:15 Ultra Deepstack Bounty Turbo $5.25 $5.25 $10,000
2/27 Sun 14:00 Battle of Marathon $315 $315 $200,000
2/27 Sun 14:00 Battle of Marathon $31.50 $31.50 $100,000
2/27 Sun 14:30 Sunday Superstack HR $840 $840 $125,000
2/27 Sun 14:30 Sunday Superstack $84 $84 $125,000
2/27 Sun 15:30 Sunday Six-Max $126 $126 $100,000
2/27 Sun 15:40 Sunday Omaholic $126 $126 $25,000
2/27 Sun 16:30 Bounty Hunters HR Main Event $525, $1M GTD $525 $1,000,000
2/27 Sun 16:30 Bounty Hunters Sunday Freezeout $52.50 $52.50 $250,000
2/27 Sun 17:30 Sunday Big Game $210 $210 $300,000
2/27 Sun 17:40 Sunday Big Game Omaholic $210 $210 $40,000
2/27 Sun 18:30 GGMasters Bounty Special Edition $300 $300 $500,000
2/27 Sun 18:30 Bounty King Jr $31.50 [Freezeout] $31.50 $100,000
2/27 Sun 19:00 Sunday High Rollers Main Event $1,050 [Bounty Edition] $1,050 $500,000
2/27 Sun 19:10 Sunday Omaholic Main Event $1,050 [Bounty Edition] $1,050 $150,000
2/27 Sun 19:30 Big Antes Bounty $105 $105 $150,000
2/27 Sun 19:40 Big Antes Omaholic $105 $105 $25,000
2/27 Sun 20:30 Bounty Hunters HR Encore $525 $525 $150,000
2/27 Sun 20:30 Bounty Hunters Sunday Encore $52.50 $52.50 $125,000
2/27 Sun 21:00 Sunday Heater Special Edition $210 $210 $150,000
2/27 Sun 21:00 Sunday Heater Special Edition $25 $25 $70,000
2/27 Sun 21:30 Global MILLION$ Bounty Edition $50, $1M GTD [Stage 1] $50 $1,000,000
2/27 Sun 22:00 SUPER SIX HR $630 $630 $125,000
2/27 Sun 22:00 SUPER SIX $63 $63 $60,000
2/27 Sun 22:30 Ultra Deepstack Bounty Hyper $52.50 $52.50 $30,000
2/27 Sun 22:30 Ultra Deepstack Bounty Hyper $5.25 $5.25 $5,000
2/27 Sun 23:30 Last Call $210 $210 $50,000
2/27 Sun 23:30 Last Call $21 $21 $15,000
2/27 Sun 23:30 Global MILLION$ Bounty Edition $50, $1M GTD [Stage 1] $50 $1,000,000
2/28 Mon 00:00 Midnight Madness $84 $84 $40,000
2/28 Mon 00:00 Mini Madness $8.40 $8.40 $8,000
2/28 Mon 00:30 Global MILLION$ Bounty Edition $50, $1M GTD [Stage 1] $50 $1,000,000
2/28 Mon 02:30 Global MILLION$ Bounty Edition $50, $1M GTD [Stage 1] $50 $1,000,000
2/28 Mon 04:30 Global MILLION$ Bounty Edition $50, $1M GTD [Stage 1] $50 $1,000,000
2/28 Mon 06:30 Global MILLION$ Bounty Edition $50, $1M GTD [Stage 1] $50 $1,000,000
2/28 Mon 08:30 Global MILLION$ Bounty Edition $50, $1M GTD [Stage 1] $50 $1,000,000
2/28 Mon 10:30 Global MILLION$ Bounty Edition $50, $1M GTD [Stage 1] $50 $1,000,000
2/28 Mon 12:30 Bounty Blast-Off $88 $88 $20,000
2/28 Mon 12:30 Mini Blast-Off $8.80 $8.80 $10,000
2/28 Mon 12:30 Global MILLION$ Bounty Edition $50, $1M GTD [Stage 1] $50 $1,000,000
2/28 Mon 13:15 Ultra Deepstack Bounty Turbo $52.50 $52.50 $20,000
2/28 Mon 13:15 Ultra Deepstack Bounty Turbo $5.25 $5.25 $10,000
2/28 Mon 14:00 Monday Hangover $105 [Variable Levels] $105 $30,000
2/28 Mon 14:00 Mini Hangover $10.50 [Variable Levels] $10.50 $20,000
2/28 Mon 14:30 Global MILLION$ Bounty Edition $50, $1M GTD [Stage 1] $50 $1,000,000
2/28 Mon 15:00 Bounty Warm-Up $250 [Freezeout] $250 $50,000
2/28 Mon 15:00 GGMasters Bounty Warm-Up Special Edition $25 $25 $50,000
2/28 Mon 16:30 Bounty Hunters HR $525 [6-Max] $525 $200,000
2/28 Mon 16:30 Bounty Hunters Daily Main $52.50 [6-Max] $52.50 $125,000
2/28 Mon 16:30 Global MILLION$ Bounty Edition $50, $1M GTD [Stage 1] $50 $1,000,000
2/28 Mon 17:30 Big Game $210 $210 $125,000
2/28 Mon 17:40 Big Game Omaholic $210 $210 $25,000
2/28 Mon 18:30 Bounty King Special Edition $315 $315 $100,000
2/28 Mon 18:30 Bounty King Jr $31.50 $31.50 $75,000
2/28 Mon 18:30 Global MILLION$ Bounty Edition $50, $1M GTD [Stage 1] $50 $1,000,000
2/28 Mon 19:00 GGMasters Bounty Special Edition $25 $25 $50,000
2/28 Mon 19:10 Omaholic Bounty $25 $25 $10,000
2/28 Mon 19:30 Big Antes Bounty $105 $105 $40,000
2/28 Mon 19:30 Big Antes Bounty $10.50 $10.50 $25,000
2/28 Mon 20:30 Global MILLION$ Bounty Edition $50, $1M GTD [Stage 1] $50 $1,000,000
2/28 Mon 21:00 Daily Heater Special Edition $210 $210 $50,000
2/28 Mon 21:00 GGMasters Bounty Turbo Special Edition $25 $25 $25,000
2/28 Mon 22:00 SUPER SIX $63 $63 $25,000
2/28 Mon 22:00 Mini SUPER SIX $6.30 $6.30 $6,000
2/28 Mon 22:30 Ultra Deepstack Bounty Hyper $52.50 $52.50 $20,000
2/28 Mon 22:30 Ultra Deepstack Bounty Hyper $5.25 $5.25 $4,000
2/28 Mon 22:30 Global MILLION$ Bounty Edition $50, $1M GTD [Stage 1] $50 $1,000,000
2/28 Mon 23:30 Last Call $210 $210 $20,000
2/28 Mon 23:30 Last Call $25 $25 $10,000
3/1 Tue 00:00 Speed Racer Closer $84 [10 BB] $84 $10,000
3/1 Tue 00:00 Speed Racer Mini Closer $8.40 [10 BB] $8.40 $5,000
3/1 Tue 00:00 Speed Racer Closer $84 [10 BB] $84 $10,000
3/1 Tue 00:00 Speed Racer Mini Closer $8.40 [10 BB] $8.40 $5,000
3/1 Tue 00:30 Global MILLION$ Bounty Edition $50, $1M GTD [Stage 1] $50 $1,000,000
3/1 Tue 02:30 Global MILLION$ Bounty Edition $50, $1M GTD [Stage 1] $50 $1,000,000
3/1 Tue 04:30 Global MILLION$ Bounty Edition $50, $1M GTD [Stage 1] $50 $1,000,000
3/1 Tue 06:30 Global MILLION$ Bounty Edition $50, $1M GTD [Stage 1] $50 $1,000,000
3/1 Tue 08:30 Global MILLION$ Bounty Edition $50, $1M GTD [Stage 1] $50 $1,000,000
3/1 Tue 10:30 Global MILLION$ Bounty Edition $50, $1M GTD [Stage 1] $50 $1,000,000
3/1 Tue 12:30 Bounty Blast-Off $88 $88 $20,000
3/1 Tue 12:30 Mini Blast-Off $8.80 $8.80 $10,000
3/1 Tue 12:30 Global MILLION$ Bounty Edition $50, $1M GTD [Stage 1] $50 $1,000,000
3/1 Tue 13:15 Ultra Deepstack Bounty Turbo $52.50 $52.50 $20,000
3/1 Tue 13:15 Ultra Deepstack Bounty Turbo $5.25 $5.25 $10,000
3/1 Tue 14:00 Tuesday Hangover $105 [Variable Levels] $105 $30,000
3/1 Tue 14:00 Mini Hangover $10.50 [Variable Levels] $10.50 $20,000
3/1 Tue 14:30 Global MILLION$ Bounty Edition $50, $1M GTD [Stage 1] $50 $1,000,000
3/1 Tue 15:00 Bounty Warm-Up $250 [Freezeout] $250 $50,000
3/1 Tue 15:00 GGMasters Bounty Warm-Up Special Edition $25 $25 $50,000
3/1 Tue 16:30 Bounty Hunters HR $525 [Deepstack] $525 $200,000
3/1 Tue 16:30 Bounty Hunters Daily Main $52.50 [Deepstack] $52.50 $125,000
3/1 Tue 16:30 Global MILLION$ Bounty Edition $50, $1M GTD [Stage 1] $50 $1,000,000
3/1 Tue 17:30 Big Game $210 $210 $125,000
3/1 Tue 17:40 Big Game Omaholic $210 $210 $25,000
3/1 Tue 18:30 Bounty King Special Edition $315 $315 $100,000
3/1 Tue 18:30 Bounty King Jr $31.50 $31.50 $75,000
3/1 Tue 18:30 Global MILLION$ Bounty Edition $50, $1M GTD [Stage 1] $50 $1,000,000
3/1 Tue 19:00 GGMasters Bounty Special Edition $25 $25 $50,000
3/1 Tue 19:10 Omaholic Bounty $25 $25 $10,000
3/1 Tue 19:30 Big Antes Bounty $105 $105 $40,000
3/1 Tue 19:30 Big Antes Bounty $10.50 $10.50 $25,000
3/1 Tue 20:30 Global MILLION$ Bounty Edition $50, $1M GTD [Stage 1] $50 $1,000,000
3/1 Tue 21:00 Daily Heater Special Edition $210 $210 $50,000
3/1 Tue 21:00 GGMasters Bounty Turbo Special Edition $25 $25 $25,000
3/1 Tue 22:00 SUPER SIX $63 $63 $25,000
3/1 Tue 22:00 Mini SUPER SIX $6.30 $6.30 $6,000
3/1 Tue 22:30 Ultra Deepstack Bounty Hyper $52.50 $52.50 $20,000
3/1 Tue 22:30 Ultra Deepstack Bounty Hyper $5.25 $5.25 $4,000
3/1 Tue 22:30 Global MILLION$ Bounty Edition $50, $1M GTD [Stage 1] $50 $1,000,000
3/1 Tue 23:30 Last Call $210 $210 $20,000
3/1 Tue 23:30 Last Call $25 $25 $10,000
3/2 Wed 00:30 Global MILLION$ Bounty Edition $50, $1M GTD [Stage 1] $50 $1,000,000
3/2 Wed 02:30 Global MILLION$ Bounty Edition $50, $1M GTD [Stage 1] $50 $1,000,000
3/2 Wed 04:30 Global MILLION$ Bounty Edition $50, $1M GTD [Stage 1] $50 $1,000,000
3/2 Wed 06:30 Global MILLION$ Bounty Edition $50, $1M GTD [Stage 1] $50 $1,000,000
3/2 Wed 08:30 Global MILLION$ Bounty Edition $50, $1M GTD [Stage 1] $50 $1,000,000
3/2 Wed 10:30 Global MILLION$ Bounty Edition $50, $1M GTD [Stage 1] $50 $1,000,000
3/2 Wed 12:30 Bounty Blast-Off $88 $88 $20,000
3/2 Wed 12:30 Mini Blast-Off $8.80 $8.80 $10,000
3/2 Wed 12:30 Global MILLION$ Bounty Edition $50, $1M GTD [Stage 1] $50 $1,000,000
3/2 Wed 13:15 Ultra Deepstack Bounty Turbo $52.50 $52.50 $20,000
3/2 Wed 13:15 Ultra Deepstack Bounty Turbo $5.25 $5.25 $10,000
3/2 Wed 14:00 Wednesday Hangover $105 [Variable Levels] $105 $30,000
3/2 Wed 14:00 Mini Hangover $10.50 [Variable Levels] $10.50 $20,000
3/2 Wed 14:30 Global MILLION$ Bounty Edition $50, $1M GTD [Stage 1] $50 $1,000,000
3/2 Wed 15:00 Bounty Warm-Up $250 [Freezeout] $250 $40,000
3/2 Wed 15:00 GGMasters Bounty Warm-Up Special Edition $25 $25 $50,000
3/2 Wed 16:30 Bounty Hunters HR $525 [Double Stack] $525 $150,000
3/2 Wed 16:30 Bounty Hunters Daily Main $52.50 [Double Stack] $52.50 $125,000
3/2 Wed 16:30 Global MILLION$ Bounty Edition $50, $1M GTD [Stage 1] $50 $1,000,000
3/2 Wed 17:30 Big Game $210 $210 $100,000
3/2 Wed 17:40 Big Game Omaholic $210 $210 $20,000
3/2 Wed 18:30 Bounty King Special Edition $315 $315 $75,000
3/2 Wed 18:30 Bounty King Jr $31.50 $31.50 $75,000
3/2 Wed 18:30 Global MILLION$ Bounty Edition $50, $1M GTD [Stage 1] $50 $1,000,000
3/2 Wed 19:00 GGMasters Bounty Special Edition $25 $25 $50,000
3/2 Wed 19:10 Omaholic Bounty $25 $25 $10,000
3/2 Wed 19:30 Big Antes Bounty $105 $105 $40,000
3/2 Wed 19:30 Big Antes Bounty $10.50 $10.50 $25,000
3/2 Wed 20:30 Global MILLION$ Bounty Edition $50, $1M GTD [Stage 1] $50 $1,000,000
3/2 Wed 21:00 Daily Heater Special Edition $210 $210 $50,000
3/2 Wed 21:00 GGMasters Bounty Turbo Special Edition $25 $25 $25,000
3/2 Wed 22:00 SUPER SIX $63 $63 $25,000
3/2 Wed 22:00 Mini SUPER SIX $6.30 $6.30 $6,000
3/2 Wed 22:30 Ultra Deepstack Bounty Hyper $52.50 $52.50 $20,000
3/2 Wed 22:30 Ultra Deepstack Bounty Hyper $5.25 $5.25 $4,000
3/2 Wed 22:30 Global MILLION$ Bounty Edition $50, $1M GTD [Stage 1] $50 $1,000,000
3/2 Wed 23:30 Last Call $210 $210 $20,000
3/2 Wed 23:30 Last Call $25 $25 $10,000
3/3 Thu 00:00 Speed Racer Closer $84 [10 BB] $84 $10,000
3/3 Thu 00:00 Speed Racer Mini Closer $8.40 [10 BB] $8.40 $5,000
3/3 Thu 00:30 Global MILLION$ Bounty Edition $50, $1M GTD [Stage 1] $50 $1,000,000
3/3 Thu 02:30 Global MILLION$ Bounty Edition $50, $1M GTD [Stage 1] $50 $1,000,000
3/3 Thu 04:30 Global MILLION$ Bounty Edition $50, $1M GTD [Stage 1] $50 $1,000,000
3/3 Thu 06:30 Global MILLION$ Bounty Edition $50, $1M GTD [Stage 1] $50 $1,000,000
3/3 Thu 08:30 Global MILLION$ Bounty Edition $50, $1M GTD [Stage 1] $50 $1,000,000
3/3 Thu 10:30 Global MILLION$ Bounty Edition $50, $1M GTD [Stage 1] $50 $1,000,000
3/3 Thu 12:30 Bounty Blast-Off $88 $88 $20,000
3/3 Thu 12:30 Mini Blast-Off $8.80 $8.80 $10,000
3/3 Thu 12:30 Global MILLION$ Bounty Edition $50, $1M GTD [Stage 1] $50 $1,000,000
3/3 Thu 13:15 Ultra Deepstack Bounty Turbo $52.50 $52.50 $20,000
3/3 Thu 13:15 Ultra Deepstack Bounty Turbo $5.25 $5.25 $10,000
3/3 Thu 14:00 Thursday Hangover $105 [Variable Levels] $105 $30,000
3/3 Thu 14:00 Mini Hangover $10.50 [Variable Levels] $10.50 $20,000
3/3 Thu 14:30 Global MILLION$ Bounty Edition $50, $1M GTD [Stage 1] $50 $1,000,000
3/3 Thu 15:00 Bounty Warm-Up $250 [Freezeout] $250 $50,000
3/3 Thu 15:00 GGMasters Bounty Warm-Up Special Edition $25 $25 $50,000
3/3 Thu 16:30 Bounty Hunters HR $525 [Classic] $525 $200,000
3/3 Thu 16:30 Bounty Hunters Daily Main $52.50 [Classic] $52.50 $125,000
3/3 Thu 16:30 Global MILLION$ Bounty Edition $50, $1M GTD [Stage 1] $50 $1,000,000
3/3 Thu 17:30 Big Game $210 $210 $125,000
3/3 Thu 17:40 Big Game Omaholic $210 $210 $25,000
3/3 Thu 18:30 Bounty King Special Edition $315 $315 $100,000
3/3 Thu 18:30 Bounty King Jr $31.50 $31.50 $75,000
3/3 Thu 18:30 Global MILLION$ Bounty Edition $50, $1M GTD [Stage 1] $50 $1,000,000
3/3 Thu 19:00 GGMasters Bounty Special Edition $25 $25 $50,000
3/3 Thu 19:10 Omaholic Bounty $25 $25 $10,000
3/3 Thu 19:30 Big Antes Bounty $105 $105 $40,000
3/3 Thu 19:30 Big Antes Bounty $10.50 $10.50 $25,000
3/3 Thu 20:30 Global MILLION$ Bounty Edition $50, $1M GTD [Stage 1] $50 $1,000,000
3/3 Thu 21:00 Daily Heater Special Edition $210 $210 $50,000
3/3 Thu 21:00 GGMasters Bounty Turbo Special Edition $25 $25 $25,000
3/3 Thu 22:00 SUPER SIX $63 $63 $25,000
3/3 Thu 22:00 Mini SUPER SIX $6.30 $6.30 $6,000
3/3 Thu 22:30 Ultra Deepstack Bounty Hyper $52.50 $52.50 $20,000
3/3 Thu 22:30 Ultra Deepstack Bounty Hyper $5.25 $5.25 $4,000
3/3 Thu 22:30 Global MILLION$ Bounty Edition $50, $1M GTD [Stage 1] $50 $1,000,000
3/3 Thu 23:30 Last Call $210 $210 $20,000
3/3 Thu 23:30 Last Call $25 $25 $10,000
3/4 Fri 00:00 Speed Racer Closer $84 [10 BB] $84 $10,000
3/4 Fri 00:00 Speed Racer Mini Closer $8.40 [10 BB] $8.40 $5,000
3/4 Fri 00:30 Global MILLION$ Bounty Edition $50, $1M GTD [Stage 1] $50 $1,000,000
3/4 Fri 02:30 Global MILLION$ Bounty Edition $50, $1M GTD [Stage 1] $50 $1,000,000
3/4 Fri 04:30 Global MILLION$ Bounty Edition $50, $1M GTD [Stage 1] $50 $1,000,000
3/4 Fri 06:30 Global MILLION$ Bounty Edition $50, $1M GTD [Stage 1] $50 $1,000,000
3/4 Fri 08:30 Global MILLION$ Bounty Edition $50, $1M GTD [Stage 1] $50 $1,000,000
3/4 Fri 10:30 Global MILLION$ Bounty Edition $50, $1M GTD [Stage 1] $50 $1,000,000
3/4 Fri 12:30 Bounty Blast-Off $88 $88 $15,000
3/4 Fri 12:30 Mini Blast-Off $8.80 $8.80 $10,000
3/4 Fri 12:30 Global MILLION$ Bounty Edition $50, $1M GTD [Stage 1] $50 $1,000,000
3/4 Fri 13:15 Ultra Deepstack Bounty Turbo $52.50 $52.50 $15,000
3/4 Fri 13:15 Ultra Deepstack Bounty Turbo $5.25 $5.25 $10,000
3/4 Fri 14:00 Friday Hangover $105 [Variable Levels] $105 $20,000
3/4 Fri 14:00 Mini Hangover $10.50 [Variable Levels] $10.50 $20,000
3/4 Fri 14:30 Global MILLION$ Bounty Edition $50, $1M GTD [Stage 1] $50 $1,000,000
3/4 Fri 15:00 Bounty Warm-Up $250 [Freezeout] $250 $35,000
3/4 Fri 15:00 GGMasters Bounty Warm-Up Special Edition $25 $25 $50,000
3/4 Fri 16:30 Bounty Hunters HR $525 [Ultradeep] $525 $125,000
3/4 Fri 16:30 Bounty Hunters Daily Main $52.50 [Ultradeep] $52.50 $100,000
3/4 Fri 16:30 Global MILLION$ Bounty Edition $50, $1M GTD [Stage 1] $50 $1,000,000
3/4 Fri 17:30 Big Game $210 $210 $75,000
3/4 Fri 17:40 Big Game Omaholic $210 $210 $20,000
3/4 Fri 18:30 Bounty King Special Edition $315 $315 $60,000
3/4 Fri 18:30 Bounty King Jr $31.50 $31.50 $75,000
3/4 Fri 18:30 Global MILLION$ Bounty Edition $50, $1M GTD [Stage 1] $50 $1,000,000
3/4 Fri 19:00 GGMasters Bounty Special Edition $25 $25 $50,000
3/4 Fri 19:10 Omaholic Bounty $25 $25 $10,000
3/4 Fri 19:30 Big Antes Bounty $105 $105 $30,000
3/4 Fri 19:30 Big Antes Bounty $10.50 $10.50 $25,000
3/4 Fri 20:30 Global MILLION$ Bounty Edition $50, $1M GTD [Stage 1] $50 $1,000,000
3/4 Fri 21:00 Daily Heater Special Edition $210 $210 $40,000
3/4 Fri 21:00 GGMasters Bounty Turbo Special Edition $25 $25 $25,000
3/4 Fri 22:00 SUPER SIX $63 $63 $20,000
3/4 Fri 22:00 Mini SUPER SIX $6.30 $6.30 $6,000
3/4 Fri 22:30 Ultra Deepstack Bounty Hyper $52.50 $52.50 $18,000
3/4 Fri 22:30 Ultra Deepstack Bounty Hyper $5.25 $5.25 $4,000
3/4 Fri 22:30 Global MILLION$ Bounty Edition $50, $1M GTD [Stage 1] $50 $1,000,000
3/4 Fri 23:30 Last Call $210 $210 $15,000
3/4 Fri 23:30 Last Call $25 $25 $7,500
3/5 Sat 00:00 Speed Racer Closer $84 [10 BB] $84 $7,500
3/5 Sat 00:00 Speed Racer Mini Closer $8.40 [10 BB] $8.40 $4,000
3/5 Sat 00:30 Global MILLION$ Bounty Edition $50, $1M GTD [Stage 1] $50 $1,000,000
3/5 Sat 02:30 Global MILLION$ Bounty Edition $50, $1M GTD [Stage 1] $50 $1,000,000
3/5 Sat 04:30 Global MILLION$ Bounty Edition $50, $1M GTD [Stage 1] $50 $1,000,000
3/5 Sat 06:30 Global MILLION$ Bounty Edition $50, $1M GTD [Stage 1] $50 $1,000,000
3/5 Sat 08:30 Global MILLION$ Bounty Edition $50, $1M GTD [Stage 1] $50 $1,000,000
3/5 Sat 10:30 Global MILLION$ Bounty Edition $50, $1M GTD [Stage 1] $50 $1,000,000
3/5 Sat 12:30 Bounty Blast-Off $88 $88 $15,000
3/5 Sat 12:30 Mini Blast-Off $8.80 $8.80 $10,000
3/5 Sat 12:30 Global MILLION$ Bounty Edition $50, $1M GTD [Stage 1] $50 $1,000,000
3/5 Sat 13:15 Ultra Deepstack Bounty Turbo $52.50 $52.50 $20,000
3/5 Sat 13:15 Ultra Deepstack Bounty Turbo $5.25 $5.25 $10,000
3/5 Sat 14:00 Saturday Hangover $105 [Variable Levels] $105 $25,000
3/5 Sat 14:00 Mini Hangover $10.50 [Variable Levels] $10.50 $20,000
3/5 Sat 14:30 Global MILLION$ Bounty Edition $50, $1M GTD [Stage 1] $50 $1,000,000
3/5 Sat 15:00 Bounty Warm-Up $250 [Freezeout] $250 $40,000
3/5 Sat 15:00 GGMasters Bounty Warm-Up Special Edition $25 $25 $50,000
3/5 Sat 16:30 Bounty Hunters HR $525 [Big Bounties] $525 $150,000
3/5 Sat 16:30 Bounty Hunters Daily Main $52.50 [Big Bounties] $52.50 $125,000
3/5 Sat 16:30 Global MILLION$ Bounty Edition $50, $1M GTD [Stage 1] $50 $1,000,000
3/5 Sat 17:30 Big Game $210 $210 $60,000
3/5 Sat 17:40 Big Game Omaholic $210 $210 $20,000
3/5 Sat 18:30 Bounty King Special Edition $315 $315 $75,000
3/5 Sat 18:30 Bounty King Jr $31.50 $31.50 $75,000
3/5 Sat 18:30 Global MILLION$ Bounty Edition $50, $1M GTD [Stage 1] $50 $1,000,000
3/5 Sat 19:00 GGMasters Bounty Special Edition $25 $25 $50,000
3/5 Sat 19:10 Omaholic Bounty $25 $25 $10,000
3/5 Sat 19:30 Big Antes Bounty $105 $105 $30,000
3/5 Sat 19:30 Big Antes Bounty $10.50 $10.50 $25,000
3/5 Sat 20:30 Global MILLION$ Bounty Edition $50, $1M GTD [Stage 1] $50 $1,000,000
3/5 Sat 21:00 Daily Heater Special Edition $210 $210 $40,000
3/5 Sat 21:00 GGMasters Bounty Turbo Special Edition $25 $25 $20,000
3/5 Sat 22:00 SUPER SIX $63 $63 $20,000
3/5 Sat 22:00 Mini SUPER SIX $6.30 $6.30 $6,000
3/5 Sat 22:30 Ultra Deepstack Bounty Hyper $52.50 $52.50 $15,000
3/5 Sat 22:30 Ultra Deepstack Bounty Hyper $5.25 $5.25 $4,000
3/5 Sat 22:30 Global MILLION$ Bounty Edition $50, $1M GTD [Stage 1] $50 $1,000,000
3/5 Sat 23:30 Last Call $210 $210 $15,000
3/5 Sat 23:30 Last Call $25 $25 $7,500
3/6 Sun 00:00 Speed Racer Closer $84 [10 BB] $84 $7,500
3/6 Sun 00:00 Speed Racer Mini Closer $8.40 [10 BB] $8.40 $4,000
3/6 Sun 00:30 Global MILLION$ Bounty Edition $50, $1M GTD [Stage 1] $50 $1,000,000
3/6 Sun 02:30 Global MILLION$ Bounty Edition $50, $1M GTD [Stage 1] $50 $1,000,000
3/6 Sun 04:30 Global MILLION$ Bounty Edition $50, $1M GTD [Stage 1] $50 $1,000,000
3/6 Sun 06:30 Global MILLION$ Bounty Edition $50, $1M GTD [Stage 1] $50 $1,000,000
3/6 Sun 08:30 Global MILLION$ Bounty Edition $50, $1M GTD [Stage 1] $50 $1,000,000
3/6 Sun 10:30 Global MILLION$ Bounty Edition $50, $1M GTD [Stage 1] $50 $1,000,000
3/6 Sun 12:30 Sunday Blast-Off $210 $210 $40,000
3/6 Sun 12:30 Mini Blast-Off $21 $21 $40,000
3/6 Sun 12:30 Global MILLION$ Bounty Edition $50, $1M GTD [Stage 1] $50 $1,000,000
3/6 Sun 13:15 Ultra Deepstack Bounty Turbo $52.50 $52.50 $25,000
3/6 Sun 13:15 Ultra Deepstack Bounty Turbo $5.25 $5.25 $10,000
3/6 Sun 14:00 Battle of Marathon $315 $315 $200,000
3/6 Sun 14:00 Battle of Marathon $31.50 $31.50 $100,000
3/6 Sun 14:30 Sunday Superstack HR $840 $840 $125,000
3/6 Sun 14:30 Sunday Superstack $84 $84 $125,000
3/6 Sun 14:30 Global MILLION$ Bounty Edition $50, $1M GTD [Stage 1] $50 $1,000,000
3/6 Sun 15:30 Sunday Six-Max $126 $126 $100,000
3/6 Sun 15:40 Sunday Omaholic $126 $126 $25,000
3/6 Sun 16:30 Bounty Hunters HR Main Event $525, $1M GTD $525 $1,000,000
3/6 Sun 16:30 Bounty Hunters Sunday Freezeout $52.50 $52.50 $250,000
3/6 Sun 16:30 Global MILLION$ Bounty Edition $50, $1M GTD [Stage 1] $50 $1,000,000
3/6 Sun 17:30 Sunday Big Game $210 $210 $300,000
3/6 Sun 17:40 Sunday Big Game Omaholic $210 $210 $40,000
3/6 Sun 18:00 Global MILLION$ Bounty Edition $50, $1M GTD [Last Chance] $50 $1,000,000
3/6 Sun 18:30 GGMasters Bounty Special Edition $300 $300 $500,000
3/6 Sun 18:30 Bounty King Jr $31.50 [Freezeout] $31.50 $100,000
3/6 Sun 19:00 Sunday High Rollers Main Event $1,050 [Bounty Edition] $1,050 $500,000
3/6 Sun 19:00 Global MILLION$ Bounty Edition $50, $1M GTD [Last Minute] $50 $1,000,000
3/6 Sun 19:10 Sunday Omaholic Main Event $1,050 [Bounty Edition] $1,050 $125,000
3/6 Sun 19:30 Big Antes Bounty $105 $105 $150,000
3/6 Sun 19:40 Big Antes Omaholic $105 $105 $20,000
3/6 Sun 20:30 Bounty Hunters HR Encore $525 $525 $150,000
3/6 Sun 20:30 Bounty Hunters Sunday Encore $52.50 $52.50 $125,000
3/6 Sun 20:30 Global MILLION$ Bounty Edition $50, $1M GTD [Final Stage] $50 $1,000,000
3/6 Sun 21:00 Sunday Heater Special Edition $210 $210 $150,000
3/6 Sun 21:00 Sunday Heater Special Edition $25 $25 $70,000
3/6 Sun 22:00 SUPER SIX HR $630 $630 $125,000
3/6 Sun 22:00 SUPER SIX $63 $63 $60,000
3/6 Sun 22:30 Ultra Deepstack Bounty Hyper $52.50 $52.50 $30,000
3/6 Sun 22:30 Ultra Deepstack Bounty Hyper $5.25 $5.25 $5,000
3/6 Sun 23:30 Last Call $210 $210 $50,000
3/6 Sun 23:30 Last Call $21 $21 $15,000
3/7 Mon 00:00 Midnight Madness $84 $84 $40,000
3/7 Mon 00:00 Mini Madness $8.40 $8.40 $8,000
3/7 Mon 12:30 Bounty Blast-Off $88 $88 $20,000
3/7 Mon 12:30 Mini Blast-Off $8.80 $8.80 $10,000
3/7 Mon 13:15 Ultra Deepstack Bounty Turbo $52.50 $52.50 $20,000
3/7 Mon 13:15 Ultra Deepstack Bounty Turbo $5.25 $5.25 $10,000
3/7 Mon 14:00 Monday Hangover $105 [Variable Levels] $105 $30,000
3/7 Mon 14:00 Mini Hangover $10.50 [Variable Levels] $10.50 $20,000
3/7 Mon 15:00 Bounty Warm-Up $250 [Freezeout] $250 $50,000
3/7 Mon 15:00 GGMasters Bounty Warm-Up Special Edition $25 $25 $50,000
3/7 Mon 16:30 Bounty Hunters HR $525 [6-Max] $525 $200,000
3/7 Mon 16:30 Bounty Hunters Daily Main $52.50 [6-Max] $52.50 $125,000
3/7 Mon 17:30 Big Game $210 $210 $125,000
3/7 Mon 17:40 Big Game Omaholic $210 $210 $25,000
3/7 Mon 18:30 Bounty King Special Edition $315 $315 $100,000
3/7 Mon 18:30 Bounty King Jr $31.50 $31.50 $75,000
3/7 Mon 19:00 GGMasters Bounty Special Edition $25 $25 $50,000
3/7 Mon 19:10 Omaholic Bounty $25 $25 $10,000
3/7 Mon 19:30 Big Antes Bounty $105 $105 $40,000
3/7 Mon 19:30 Big Antes Bounty $10.50 $10.50 $25,000
3/7 Mon 21:00 Daily Heater Special Edition $210 $210 $50,000
3/7 Mon 21:00 GGMasters Bounty Turbo Special Edition $25 $25 $25,000
3/7 Mon 22:00 SUPER SIX $63 $63 $25,000
3/7 Mon 22:00 Mini SUPER SIX $6.30 $6.30 $6,000
3/7 Mon 22:30 Ultra Deepstack Bounty Hyper $52.50 $52.50 $20,000
3/7 Mon 22:30 Ultra Deepstack Bounty Hyper $5.25 $5.25 $4,000
3/7 Mon 23:30 Last Call $210 $210 $20,000
3/7 Mon 23:30 Last Call $25 $25 $10,000
3/8 Tue 00:00 Speed Racer Closer $84 [10 BB] $84 $10,000
3/8 Tue 00:00 Speed Racer Mini Closer $8.40 [10 BB] $8.40 $5,000
3/8 Tue 12:30 Bounty Blast-Off $88 $88 $20,000
3/8 Tue 12:30 Mini Blast-Off $8.80 $8.80 $10,000
3/8 Tue 13:15 Ultra Deepstack Bounty Turbo $52.50 $52.50 $20,000
3/8 Tue 13:15 Ultra Deepstack Bounty Turbo $5.25 $5.25 $10,000
3/8 Tue 14:00 Tuesday Hangover $105 [Variable Levels] $105 $30,000
3/8 Tue 14:00 Mini Hangover $10.50 [Variable Levels] $10.50 $20,000
3/8 Tue 15:00 Bounty Warm-Up $250 [Freezeout] $250 $50,000
3/8 Tue 15:00 GGMasters Bounty Warm-Up Special Edition $25 $25 $50,000
3/8 Tue 16:30 Bounty Hunters HR $525 [Deepstack] $525 $200,000
3/8 Tue 16:30 Bounty Hunters Daily Main $52.50 [Deepstack] $52.50 $125,000
3/8 Tue 17:30 Big Game $210 $210 $125,000
3/8 Tue 17:40 Big Game Omaholic $210 $210 $25,000
3/8 Tue 18:30 Bounty King Special Edition $315 $315 $100,000
3/8 Tue 18:30 Bounty King Jr $31.50 $31.50 $75,000
3/8 Tue 19:00 GGMasters Bounty Special Edition $25 $25 $50,000
3/8 Tue 19:10 Omaholic Bounty $25 $25 $10,000
3/8 Tue 19:30 Big Antes Bounty $105 $105 $40,000
3/8 Tue 19:30 Big Antes Bounty $10.50 $10.50 $25,000
3/8 Tue 21:00 Daily Heater Special Edition $210 $210 $50,000
3/8 Tue 21:00 GGMasters Bounty Turbo Special Edition $25 $25 $25,000
3/8 Tue 22:00 SUPER SIX $63 $63 $25,000
3/8 Tue 22:00 Mini SUPER SIX $6.30 $6.30 $6,000
3/8 Tue 22:30 Ultra Deepstack Bounty Hyper $52.50 $52.50 $20,000
3/8 Tue 22:30 Ultra Deepstack Bounty Hyper $5.25 $5.25 $4,000
3/8 Tue 23:30 Last Call $210 $210 $20,000
3/8 Tue 23:30 Last Call $25 $25 $10,000
3/9 Wed 00:00 Speed Racer Closer $84 [10 BB] $84 $10,000
3/9 Wed 00:00 Speed Racer Mini Closer $8.40 [10 BB] $8.40 $5,000
3/9 Wed 12:30 Bounty Blast-Off $88 $88 $20,000
3/9 Wed 12:30 Mini Blast-Off $8.80 $8.80 $10,000
3/9 Wed 13:15 Ultra Deepstack Bounty Turbo $52.50 $52.50 $20,000
3/9 Wed 13:15 Ultra Deepstack Bounty Turbo $5.25 $5.25 $10,000
3/9 Wed 14:00 Wednesday Hangover $105 [Variable Levels] $105 $30,000
3/9 Wed 14:00 Mini Hangover $10.50 [Variable Levels] $10.50 $20,000
3/9 Wed 15:00 Bounty Warm-Up $250 [Freezeout] $250 $40,000
3/9 Wed 15:00 GGMasters Bounty Warm-Up Special Edition $25 $25 $50,000
3/9 Wed 16:30 Bounty Hunters HR $525 [Double Stack] $525 $150,000
3/9 Wed 16:30 Bounty Hunters Daily Main $52.50 [Double Stack] $52.50 $125,000
3/9 Wed 17:30 Big Game $210 $210 $100,000
3/9 Wed 17:40 Big Game Omaholic $210 $210 $20,000
3/9 Wed 18:30 Bounty King Special Edition $315 $315 $75,000
3/9 Wed 18:30 Bounty King Jr $31.50 $31.50 $75,000
3/9 Wed 19:00 GGMasters Bounty Special Edition $25 $25 $50,000
3/9 Wed 19:10 Omaholic Bounty $25 $25 $10,000
3/9 Wed 19:30 Big Antes Bounty $105 $105 $40,000
3/9 Wed 19:30 Big Antes Bounty $10.50 $10.50 $25,000
3/9 Wed 21:00 Daily Heater Special Edition $210 $210 $50,000
3/9 Wed 21:00 GGMasters Bounty Turbo Special Edition $25 $25 $25,000
3/9 Wed 22:00 SUPER SIX $63 $63 $25,000
3/9 Wed 22:00 Mini SUPER SIX $6.30 $6.30 $6,000
3/9 Wed 22:30 Ultra Deepstack Bounty Hyper $52.50 $52.50 $20,000
3/9 Wed 22:30 Ultra Deepstack Bounty Hyper $5.25 $5.25 $4,000
3/9 Wed 23:30 Last Call $210 $210 $20,000
3/9 Wed 23:30 Last Call $25 $25 $10,000
3/10 Thu 00:00 Speed Racer Closer $84 [10 BB] $84 $10,000
3/10 Thu 00:00 Speed Racer Mini Closer $8.40 [10 BB] $8.40 $5,000
3/10 Thu 12:30 Bounty Blast-Off $88 $88 $20,000
3/10 Thu 12:30 Mini Blast-Off $8.80 $8.80 $10,000
3/10 Thu 13:15 Ultra Deepstack Bounty Turbo $52.50 $52.50 $20,000
3/10 Thu 13:15 Ultra Deepstack Bounty Turbo $5.25 $5.25 $10,000
3/10 Thu 14:00 Thursday Hangover $105 [Variable Levels] $105 $30,000
3/10 Thu 14:00 Mini Hangover $10.50 [Variable Levels] $10.50 $20,000
3/10 Thu 15:00 Bounty Warm-Up $250 [Freezeout] $250 $50,000
3/10 Thu 15:00 GGMasters Bounty Warm-Up Special Edition $25 $25 $50,000
3/10 Thu 16:30 Bounty Hunters HR $525 [Classic] $525 $200,000
3/10 Thu 16:30 Bounty Hunters Daily Main $52.50 [Classic] $52.50 $125,000
3/10 Thu 17:30 Big Game $210 $210 $125,000
3/10 Thu 17:40 Big Game Omaholic $210 $210 $25,000
3/10 Thu 18:30 Bounty King Special Edition $315 $315 $100,000
3/10 Thu 18:30 Bounty King Jr $31.50 $31.50 $75,000
3/10 Thu 19:00 GGMasters Bounty Special Edition $25 $25 $50,000
3/10 Thu 19:10 Omaholic Bounty $25 $25 $10,000
3/10 Thu 19:30 Big Antes Bounty $105 $105 $40,000
3/10 Thu 19:30 Big Antes Bounty $10.50 $10.50 $25,000
3/10 Thu 21:00 Daily Heater Special Edition $210 $210 $50,000
3/10 Thu 21:00 GGMasters Bounty Turbo Special Edition $25 $25 $25,000
3/10 Thu 22:00 SUPER SIX $63 $63 $25,000
3/10 Thu 22:00 Mini SUPER SIX $6.30 $6.30 $6,000
3/10 Thu 22:30 Ultra Deepstack Bounty Hyper $52.50 $52.50 $20,000
3/10 Thu 22:30 Ultra Deepstack Bounty Hyper $5.25 $5.25 $4,000
3/10 Thu 23:30 Last Call $210 $210 $20,000
3/10 Thu 23:30 Last Call $25 $25 $10,000
3/11 Fri 00:00 Speed Racer Closer $84 [10 BB] $84 $10,000
3/11 Fri 00:00 Speed Racer Mini Closer $8.40 [10 BB] $8.40 $5,000
3/11 Fri 12:30 Bounty Blast-Off $88 $88 $15,000
3/11 Fri 12:30 Mini Blast-Off $8.80 $8.80 $10,000
3/11 Fri 13:15 Ultra Deepstack Bounty Turbo $52.50 $52.50 $15,000
3/11 Fri 13:15 Ultra Deepstack Bounty Turbo $5.25 $5.25 $10,000
3/11 Fri 14:00 Friday Hangover $105 [Variable Levels] $105 $20,000
3/11 Fri 14:00 Mini Hangover $10.50 [Variable Levels] $10.50 $20,000
3/11 Fri 15:00 Bounty Warm-Up $250 [Freezeout] $250 $35,000
3/11 Fri 15:00 GGMasters Bounty Warm-Up Special Edition $25 $25 $50,000
3/11 Fri 16:30 Bounty Hunters HR $525 [Ultradeep] $525 $125,000
3/11 Fri 16:30 Bounty Hunters Daily Main $52.50 [Ultradeep] $52.50 $100,000
3/11 Fri 17:30 Big Game $210 $210 $75,000
3/11 Fri 17:40 Big Game Omaholic $210 $210 $20,000
3/11 Fri 18:30 Bounty King Special Edition $315 $315 $60,000
3/11 Fri 18:30 Bounty King Jr $31.50 $31.50 $75,000
3/11 Fri 19:00 GGMasters Bounty Special Edition $25 $25 $50,000
3/11 Fri 19:10 Omaholic Bounty $25 $25 $10,000
3/11 Fri 19:30 Big Antes Bounty $105 $105 $30,000
3/11 Fri 19:30 Big Antes Bounty $10.50 $10.50 $25,000
3/11 Fri 21:00 Daily Heater Special Edition $210 $210 $40,000
3/11 Fri 21:00 GGMasters Bounty Turbo Special Edition $25 $25 $25,000
3/11 Fri 22:00 SUPER SIX $63 $63 $20,000
3/11 Fri 22:00 Mini SUPER SIX $6.30 $6.30 $6,000
3/11 Fri 22:30 Ultra Deepstack Bounty Hyper $52.50 $52.50 $18,000
3/11 Fri 22:30 Ultra Deepstack Bounty Hyper $5.25 $5.25 $4,000
3/11 Fri 23:30 Last Call $210 $210 $15,000
3/11 Fri 23:30 Last Call $25 $25 $7,500
3/12 Sat 00:00 Speed Racer Closer $84 [10 BB] $84 $7,500
3/12 Sat 00:00 Speed Racer Mini Closer $8.40 [10 BB] $8.40 $4,000
3/12 Sat 12:30 Bounty Blast-Off $88 $88 $15,000
3/12 Sat 12:30 Mini Blast-Off $8.80 $8.80 $10,000
3/12 Sat 13:15 Ultra Deepstack Bounty Turbo $52.50 $52.50 $20,000
3/12 Sat 13:15 Ultra Deepstack Bounty Turbo $5.25 $5.25 $10,000
3/12 Sat 14:00 Saturday Hangover $105 [Variable Levels] $105 $25,000
3/12 Sat 14:00 Mini Hangover $10.50 [Variable Levels] $10.50 $20,000
3/12 Sat 15:00 Bounty Warm-Up $250 [Freezeout] $250 $40,000
3/12 Sat 15:00 GGMasters Bounty Warm-Up Special Edition $25 $25 $50,000
3/12 Sat 16:30 Bounty Hunters HR $525 [Big Bounties] $525 $150,000
3/12 Sat 16:30 Bounty Hunters Daily Main $52.50 [Big Bounties] $52.50 $125,000
3/12 Sat 17:30 Big Game $210 $210 $60,000
3/12 Sat 17:40 Big Game Omaholic $210 $210 $20,000
3/12 Sat 18:30 Bounty King Special Edition $315 $315 $75,000
3/12 Sat 18:30 Bounty King Jr $31.50 $31.50 $75,000
3/12 Sat 19:00 GGMasters Bounty Special Edition $25 $25 $50,000
3/12 Sat 19:10 Omaholic Bounty $25 $25 $10,000
3/12 Sat 19:30 Big Antes Bounty $105 $105 $30,000
3/12 Sat 19:30 Big Antes Bounty $10.50 $10.50 $25,000
3/12 Sat 21:00 Daily Heater Special Edition $210 $210 $40,000
3/12 Sat 21:00 GGMasters Bounty Turbo Special Edition $25 $25 $20,000
3/12 Sat 22:00 SUPER SIX $63 $63 $20,000
3/12 Sat 22:00 Mini SUPER SIX $6.30 $6.30 $6,000
3/12 Sat 22:30 Ultra Deepstack Bounty Hyper $52.50 $52.50 $15,000
3/12 Sat 22:30 Ultra Deepstack Bounty Hyper $5.25 $5.25 $4,000
3/12 Sat 23:30 Last Call $210 $210 $15,000
3/12 Sat 23:30 Last Call $25 $25 $7,500
3/13 Sun 00:00 Speed Racer Closer $84 [10 BB] $84 $7,500
3/13 Sun 00:00 Speed Racer Mini Closer $8.40 [10 BB] $8.40 $4,000
3/13 Sun 00:00 Midnight Madness $84 $84 $40,000
3/13 Sun 00:00 Mini Madness $8.40 $8.40 $8,000
3/13 Sun 12:30 Sunday Blast-Off $210 $210 $40,000
3/13 Sun 12:30 Mini Blast-Off $21 $21 $40,000
3/13 Sun 13:15 Ultra Deepstack Bounty Turbo $52.50 $52.50 $25,000
3/13 Sun 13:15 Ultra Deepstack Bounty Turbo $5.25 $5.25 $10,000
3/13 Sun 14:00 Battle of Marathon $315 $315 $200,000
3/13 Sun 14:00 Battle of Marathon $31.50 $31.50 $100,000
3/13 Sun 14:30 Sunday Superstack HR $840 $840 $125,000
3/13 Sun 14:30 Sunday Superstack $84 $84 $125,000
3/13 Sun 15:30 Sunday Six-Max $126 $126 $100,000
3/13 Sun 15:40 Sunday Omaholic $126 $126 $25,000
3/13 Sun 16:30 Bounty Hunters HR Main Event $525, $1M GTD $525 $1,000,000
3/13 Sun 16:30 Bounty Hunters Sunday Freezeout $52.50 $52.50 $250,000
3/13 Sun 17:30 Sunday Big Game $210 $210 $300,000
3/13 Sun 17:40 Sunday Big Game Omaholic $210 $210 $40,000
3/13 Sun 18:30 GGMasters Bounty Special Edition $300 $300 $500,000
3/13 Sun 18:30 Bounty King Jr $31.50 [Freezeout] $31.50 $100,000
3/13 Sun 19:00 Sunday High Rollers Main Event $1,050 [Bounty Edition] $1,050 $500,000
3/13 Sun 19:10 Sunday Omaholic Main Event $1,050 [Bounty Edition] $1,050 $125,000
3/13 Sun 19:30 Big Antes Bounty $105 $105 $150,000
3/13 Sun 19:40 Big Antes Omaholic $105 $105 $20,000
3/13 Sun 20:30 Bounty Hunters HR Encore $525 $525 $150,000
3/13 Sun 20:30 Bounty Hunters Sunday Encore $52.50 $52.50 $125,000
3/13 Sun 21:00 Sunday Heater Special Edition $210 $210 $150,000
3/13 Sun 21:00 Sunday Heater Special Edition $25 $25 $70,000
3/13 Sun 22:00 SUPER SIX HR $630 $630 $125,000
3/13 Sun 22:00 SUPER SIX $63 $63 $60,000
3/13 Sun 22:30 Ultra Deepstack Bounty Hyper $52.50 $52.50 $30,000
3/13 Sun 22:30 Ultra Deepstack Bounty Hyper $5.25 $5.25 $5,000
3/13 Sun 23:30 Last Call $210 $210 $50,000
3/13 Sun 23:30 Last Call $21 $21 $15,000
3/14 Mon 00:00 Midnight Madness $84 $84 $40,000
3/14 Mon 00:00 Mini Madness $8.40 $8.40 $8,000
Promotions Terms & Conditions
• Players must be aged 18 and above to participate in this series.
• Please note that tournament prize pool guarantees are subject to change and some amounts listed on this website may not be current; please check the guarantee amounts listed in the tournament lobby of the GGPoker app for up-to-date prize pool information.
• The promotion terms and conditions are subject to the site terms and conditions, which can be found here.
• GGPoker standard rules apply.
Play Responsibly. www.begambleaware.org